Time;durP1;ratioP1;P1;durP2;ratioP2;P2;SDS_P1;SDS_P2;PMS_P1;PMS_P2;Temp;Humidity;BMP_temperature;BMP_pressure;BME280_temperature;BME280_humidity;BME280_pressure;Samples;Min_cycle;Max_cycle;Signal;HPM_P1;HPM_P2
2024/03/25 00:01:05;;;;;;;7.60;2.17;;;5.30;99.90;;;;;;5025921;28;20055;-54
2024/03/25 00:03:30;;;;;;;6.28;1.60;;;5.30;99.90;;;;;;5022239;28;20037;-54
2024/03/25 00:05:57;;;;;;;5.80;2.30;;;5.30;99.90;;;;;;5004700;28;20059;-53
2024/03/25 00:08:22;;;;;;;5.10;1.58;;;5.30;99.90;;;;;;5007472;28;20530;-55
2024/03/25 00:10:48;;;;;;;3.72;1.52;;;5.30;99.90;;;;;;5004178;28;20060;-53
2024/03/25 00:13:14;;;;;;;4.80;2.00;;;5.30;99.90;;;;;;5018274;28;20075;-51
2024/03/25 00:15:41;;;;;;;3.53;1.73;;;5.30;99.90;;;;;;5020669;28;20527;-52
2024/03/25 00:18:07;;;;;;;5.60;1.92;;;5.30;99.90;;;;;;5017758;28;20045;-50
2024/03/25 00:20:32;;;;;;;9.15;2.22;;;5.30;99.90;;;;;;5013607;28;20030;-52
2024/03/25 00:22:58;;;;;;;7.40;2.15;;;5.30;99.90;;;;;;5011877;28;20576;-53
2024/03/25 00:25:24;;;;;;;4.60;1.67;;;5.40;99.90;;;;;;5004089;28;20116;-49
2024/03/25 00:27:49;;;;;;;5.90;2.35;;;5.40;99.90;;;;;;5022328;28;20382;-51
2024/03/25 00:30:15;;;;;;;7.70;2.28;;;5.30;99.90;;;;;;5009715;28;20696;-49
2024/03/25 00:32:41;;;;;;;9.02;2.67;;;5.30;99.90;;;;;;5004735;28;20559;-53
2024/03/25 00:35:07;;;;;;;3.63;2.03;;;5.30;99.90;;;;;;5011407;28;20036;-54
2024/03/25 00:37:32;;;;;;;3.13;1.75;;;5.30;99.90;;;;;;5014956;28;20025;-53
2024/03/25 00:39:58;;;;;;;6.93;2.13;;;5.30;99.90;;;;;;5023171;28;20059;-51
2024/03/25 00:42:23;;;;;;;8.60;2.30;;;5.30;99.90;;;;;;5024276;28;20056;-51
2024/03/25 00:44:49;;;;;;;6.10;2.30;;;5.30;99.90;;;;;;4997557;28;20061;-52
2024/03/25 00:47:14;;;;;;;6.43;2.80;;;5.30;99.90;;;;;;5009380;28;20025;-53
2024/03/25 00:49:40;;;;;;;6.07;2.42;;;5.30;99.90;;;;;;5016699;28;20124;-52
2024/03/25 00:52:06;;;;;;;2.08;1.60;;;5.30;99.90;;;;;;5018737;28;20022;-48
2024/03/25 00:54:32;;;;;;;6.97;2.35;;;5.40;99.90;;;;;;5018993;28;20036;-59
2024/03/25 00:56:58;;;;;;;5.45;1.70;;;5.40;99.90;;;;;;5012540;28;20087;-53
2024/03/25 00:59:24;;;;;;;10.18;2.58;;;5.40;99.90;;;;;;5011773;28;20033;-50
2024/03/25 01:01:50;;;;;;;6.18;2.20;;;5.40;99.90;;;;;;5011410;28;20044;-50
2024/03/25 01:04:15;;;;;;;4.97;2.00;;;5.40;99.90;;;;;;5014069;28;20033;-52
2024/03/25 01:06:43;;;;;;;5.78;2.45;;;5.40;99.90;;;;;;5013685;28;20034;-51
2024/03/25 01:09:10;;;;;;;4.30;2.25;;;5.40;99.90;;;;;;4996845;28;20029;-52
2024/03/25 01:11:35;;;;;;;7.72;2.28;;;5.30;99.90;;;;;;5008622;28;20044;-52
2024/03/25 01:14:02;;;;;;;4.97;1.98;;;5.30;99.90;;;;;;5020728;28;20025;-52
2024/03/25 01:16:27;;;;;;;4.07;2.42;;;5.30;99.90;;;;;;5014766;28;20432;-52
2024/03/25 01:18:53;;;;;;;7.38;2.63;;;5.30;99.90;;;;;;5011206;28;20037;-52
2024/03/25 01:21:19;;;;;;;8.68;2.53;;;5.30;99.90;;;;;;4999450;28;20040;-54
2024/03/25 01:23:44;;;;;;;5.70;2.70;;;5.30;99.90;;;;;;5008663;28;20045;-52
2024/03/25 01:26:10;;;;;;;6.38;2.67;;;5.30;99.90;;;;;;4993553;28;20045;-49
2024/03/25 01:28:36;;;;;;;5.80;2.58;;;5.30;99.90;;;;;;5009212;28;20040;-49
2024/03/25 01:31:01;;;;;;;4.75;2.00;;;5.40;99.90;;;;;;5010680;28;20080;-51
2024/03/25 01:33:27;;;;;;;11.05;2.95;;;5.30;99.90;;;;;;5024468;28;20045;-49
2024/03/25 01:35:55;;;;;;;6.25;2.95;;;5.30;99.90;;;;;;5012591;28;20028;-51
2024/03/25 01:38:21;;;;;;;5.57;2.53;;;5.30;99.90;;;;;;5015537;28;20029;-49
2024/03/25 01:40:47;;;;;;;9.05;3.40;;;5.30;99.90;;;;;;5019255;28;20026;-49
2024/03/25 01:43:14;;;;;;;4.28;2.97;;;5.30;99.90;;;;;;5011932;28;20107;-49
2024/03/25 01:45:39;;;;;;;8.60;2.53;;;5.30;99.90;;;;;;5019787;28;20074;-50
2024/03/25 01:48:07;;;;;;;4.38;2.83;;;5.30;99.90;;;;;;5012842;28;20028;-49
2024/03/25 01:50:37;;;;;;;6.50;2.63;;;5.30;99.90;;;;;;5018388;28;20025;-50
2024/03/25 01:53:04;;;;;;;6.97;2.75;;;5.30;99.90;;;;;;5014995;28;20502;-51
2024/03/25 01:55:32;;;;;;;5.65;2.45;;;5.30;99.90;;;;;;5019500;28;20054;-49
2024/03/25 01:58:00;;;;;;;4.82;2.55;;;5.30;99.90;;;;;;5017078;28;20025;-52
2024/03/25 02:00:27;;;;;;;11.32;2.33;;;5.30;99.90;;;;;;5021121;28;20018;-52
2024/03/25 02:02:53;;;;;;;7.15;2.42;;;5.40;99.90;;;;;;5011342;28;20663;-52
2024/03/25 02:05:20;;;;;;;5.95;2.65;;;5.30;99.90;;;;;;5013439;28;20401;-51
2024/03/25 02:07:46;;;;;;;6.68;2.10;;;5.30;99.90;;;;;;5020598;28;20030;-53
2024/03/25 02:10:15;;;;;;;3.17;2.05;;;5.30;99.90;;;;;;5016747;28;20021;-52
2024/03/25 02:12:48;;;;;;;6.82;1.95;;;5.30;99.90;;;;;;5010235;28;20505;-54
2024/03/25 02:15:13;;;;;;;5.22;2.28;;;5.30;99.90;;;;;;5018308;28;20029;-51
2024/03/25 02:17:39;;;;;;;2.80;1.95;;;5.30;99.90;;;;;;5013701;28;20080;-53
2024/03/25 02:20:09;;;;;;;6.78;2.47;;;5.30;99.90;;;;;;5012698;28;20029;-50
2024/03/25 02:22:38;;;;;;;6.07;2.15;;;5.30;99.90;;;;;;5011162;28;20033;-53
2024/03/25 02:25:09;;;;;;;4.38;2.15;;;5.30;99.90;;;;;;5006890;28;20029;-54
2024/03/25 02:27:39;;;;;;;3.47;2.13;;;5.30;99.90;;;;;;5007846;28;20116;-54
2024/03/25 02:30:05;;;;;;;4.45;2.90;;;5.30;99.90;;;;;;5014193;28;20049;-53
2024/03/25 02:32:31;;;;;;;3.78;2.05;;;5.20;99.90;;;;;;5009404;28;20036;-52
2024/03/25 02:34:58;;;;;;;5.45;2.20;;;5.20;99.90;;;;;;5006740;28;20641;-55
2024/03/25 02:37:24;;;;;;;3.17;2.53;;;5.20;99.90;;;;;;5006060;28;20028;-55
2024/03/25 02:39:50;;;;;;;4.90;2.10;;;5.20;99.90;;;;;;5007257;28;20029;-50
2024/03/25 02:42:16;;;;;;;2.10;1.75;;;5.20;99.90;;;;;;5015923;28;20460;-49
2024/03/25 02:44:43;;;;;;;2.13;1.60;;;5.10;99.90;;;;;;5006187;28;20108;-55
2024/03/25 02:47:09;;;;;;;3.60;1.65;;;5.10;99.90;;;;;;5007425;28;20021;-59
2024/03/25 02:49:35;;;;;;;7.88;2.08;;;5.00;99.90;;;;;;5008708;28;20020;-55
2024/03/25 02:52:01;;;;;;;5.38;1.83;;;5.00;99.90;;;;;;4999202;28;20033;-53
2024/03/25 02:54:27;;;;;;;3.40;1.88;;;5.00;99.90;;;;;;5020078;28;20599;-51
2024/03/25 02:56:54;;;;;;;3.13;1.73;;;5.00;99.90;;;;;;5004735;28;20700;-56
2024/03/25 02:59:20;;;;;;;5.25;1.80;;;5.00;99.90;;;;;;5006323;28;20032;-52
2024/03/25 03:01:45;;;;;;;4.45;1.38;;;4.90;99.90;;;;;;5013500;28;20029;-51
2024/03/25 03:04:11;;;;;;;3.80;1.63;;;4.90;99.90;;;;;;5003942;28;20021;-53
2024/03/25 03:06:37;;;;;;;4.45;1.48;;;4.90;99.90;;;;;;5010179;28;20485;-56
2024/03/25 03:09:02;;;;;;;5.30;1.90;;;4.90;99.90;;;;;;5014770;28;20055;-51
2024/03/25 03:11:28;;;;;;;5.50;2.30;;;4.90;99.90;;;;;;5006112;28;20063;-53
2024/03/25 03:13:53;;;;;;;4.30;1.95;;;4.90;99.90;;;;;;5009935;28;20539;-51
2024/03/25 03:16:19;;;;;;;3.22;1.95;;;5.00;99.90;;;;;;5003630;28;20044;-52
2024/03/25 03:18:46;;;;;;;3.90;1.65;;;4.90;99.90;;;;;;5006493;28;20036;-53
2024/03/25 03:21:12;;;;;;;4.25;1.60;;;4.90;99.90;;;;;;5017185;28;20040;-52
2024/03/25 03:23:38;;;;;;;2.47;1.38;;;4.90;99.90;;;;;;4999654;28;20021;-53
2024/03/25 03:26:03;;;;;;;4.75;1.73;;;4.90;99.90;;;;;;5010988;28;20065;-57
2024/03/25 03:28:29;;;;;;;3.47;1.60;;;4.90;99.90;;;;;;5009173;28;20057;-49
2024/03/25 03:30:55;;;;;;;9.32;2.63;;;4.90;99.90;;;;;;5004774;28;20067;-48
2024/03/25 03:33:21;;;;;;;3.90;1.60;;;4.90;99.90;;;;;;5016267;28;20052;-53
2024/03/25 03:35:46;;;;;;;5.45;2.03;;;4.90;99.90;;;;;;4999712;28;20025;-59
2024/03/25 03:38:12;;;;;;;7.45;1.38;;;4.90;99.90;;;;;;5000960;28;20029;-52
2024/03/25 03:40:37;;;;;;;6.57;1.92;;;4.90;99.90;;;;;;5010336;28;20075;-55
2024/03/25 03:43:03;;;;;;;4.88;1.30;;;4.90;99.90;;;;;;4997505;28;20021;-49
2024/03/25 03:45:33;;;;;;;5.03;1.33;;;4.90;99.90;;;;;;5011572;28;20489;-52
2024/03/25 03:47:59;;;;;;;5.90;1.88;;;4.90;99.90;;;;;;5002066;28;20065;-53
2024/03/25 03:50:25;;;;;;;3.35;1.23;;;4.90;99.90;;;;;;4996324;28;20068;-49
2024/03/25 03:52:51;;;;;;;5.88;1.70;;;5.00;99.90;;;;;;5008791;28;20412;-51
2024/03/25 03:55:16;;;;;;;9.13;1.63;;;5.00;99.90;;;;;;5000072;28;20025;-53
2024/03/25 03:57:42;;;;;;;5.60;1.65;;;4.90;99.90;;;;;;4999382;28;20041;-50
2024/03/25 04:00:14;;;;;;;2.83;1.05;;;5.00;99.90;;;;;;5010777;28;20025;-51
2024/03/25 04:02:39;;;;;;;2.83;1.20;;;4.90;99.90;;;;;;4996964;28;20026;-53
2024/03/25 04:05:05;;;;;;;4.60;0.93;;;4.90;99.90;;;;;;5002645;28;20022;-59
2024/03/25 04:07:32;;;;;;;5.50;1.65;;;4.90;99.90;;;;;;5002341;28;20072;-52
2024/03/25 04:09:59;;;;;;;6.82;1.73;;;4.90;99.90;;;;;;4994910;28;20056;-50
2024/03/25 04:12:25;;;;;;;6.35;1.52;;;4.90;99.90;;;;;;5011095;28;20104;-50
2024/03/25 04:14:55;;;;;;;6.15;1.17;;;4.90;99.90;;;;;;4995050;28;20112;-54
2024/03/25 04:17:21;;;;;;;3.38;1.45;;;4.90;99.90;;;;;;4992139;28;20120;-53
2024/03/25 04:19:51;;;;;;;4.38;1.50;;;5.00;99.90;;;;;;5007922;28;20405;-54
2024/03/25 04:22:17;;;;;;;5.95;1.58;;;4.90;99.90;;;;;;4993323;28;20256;-54
2024/03/25 04:24:43;;;;;;;4.47;1.50;;;5.00;99.90;;;;;;4995257;28;20033;-59
2024/03/25 04:27:09;;;;;;;3.63;0.98;;;4.90;99.90;;;;;;5007847;28;20116;-52
2024/03/25 04:29:35;;;;;;;3.45;1.35;;;4.90;99.90;;;;;;4991581;28;20027;-52
2024/03/25 04:32:02;;;;;;;5.25;1.55;;;5.00;99.90;;;;;;5009578;28;20133;-53
2024/03/25 04:34:29;;;;;;;3.05;1.42;;;4.90;99.90;;;;;;4993916;28;20531;-51
2024/03/25 04:36:55;;;;;;;4.68;1.50;;;4.90;99.90;;;;;;4988349;28;20120;-53
2024/03/25 04:39:22;;;;;;;2.85;1.67;;;4.90;99.90;;;;;;5004649;28;20117;-51
2024/03/25 04:41:47;;;;;;;3.40;1.90;;;4.90;99.90;;;;;;4995888;28;20021;-49
2024/03/25 04:44:13;;;;;;;5.05;1.30;;;4.90;99.90;;;;;;4991720;28;20819;-54
2024/03/25 04:46:39;;;;;;;6.97;1.90;;;4.90;99.90;;;;;;5005685;28;20036;-53
2024/03/25 04:49:05;;;;;;;4.63;1.27;;;4.80;99.90;;;;;;4992631;28;20025;-52
2024/03/25 04:51:31;;;;;;;1.73;0.95;;;4.90;99.90;;;;;;5009003;28;20048;-52
2024/03/25 04:53:57;;;;;;;3.63;1.33;;;4.90;99.90;;;;;;4989744;28;20029;-53
2024/03/25 04:56:23;;;;;;;2.60;0.93;;;4.80;99.90;;;;;;4989412;28;20056;-52
2024/03/25 04:58:48;;;;;;;1.30;1.05;;;4.80;99.90;;;;;;5006075;28;20076;-49
2024/03/25 05:01:14;;;;;;;3.13;0.60;;;4.80;99.90;;;;;;4991381;28;20651;-52
2024/03/25 05:03:40;;;;;;;1.45;0.80;;;4.80;99.90;;;;;;5001039;28;20053;-52
2024/03/25 05:06:09;;;;;;;3.58;0.60;;;4.80;99.90;;;;;;5004072;28;20071;-52
2024/03/25 05:08:35;;;;;;;3.80;0.90;;;4.80;99.90;;;;;;4987212;28;20552;-52
2024/03/25 05:11:00;;;;;;;3.10;0.80;;;4.80;99.90;;;;;;5009043;28;20029;-52
2024/03/25 05:13:26;;;;;;;1.38;0.80;;;4.80;99.90;;;;;;4981409;28;20065;-53
2024/03/25 05:15:52;;;;;;;1.08;0.60;;;4.70;99.90;;;;;;4985930;28;20055;-54
2024/03/25 05:18:18;;;;;;;1.52;0.80;;;4.70;99.90;;;;;;5005642;28;20022;-52
2024/03/25 05:20:44;;;;;;;1.40;0.65;;;4.70;99.90;;;;;;4989337;28;20091;-52
2024/03/25 05:23:10;;;;;;;2.25;0.80;;;4.70;99.90;;;;;;4995146;28;20123;-52
2024/03/25 05:25:38;;;;;;;2.63;1.30;;;4.70;99.90;;;;;;5000532;28;20172;-55
2024/03/25 05:28:04;;;;;;;2.22;1.15;;;4.70;99.90;;;;;;4986093;28;21648;-53
2024/03/25 05:30:30;;;;;;;2.13;1.10;;;4.60;99.90;;;;;;5004512;28;20021;-50
2024/03/25 05:32:55;;;;;;;3.45;0.90;;;4.60;99.90;;;;;;4988171;28;20036;-54
2024/03/25 05:35:21;;;;;;;1.15;0.93;;;4.60;99.90;;;;;;4986408;28;20540;-52
2024/03/25 05:37:47;;;;;;;1.85;1.08;;;4.60;99.90;;;;;;5006981;28;20053;-52
2024/03/25 05:40:12;;;;;;;1.75;0.75;;;4.60;99.90;;;;;;4984915;28;20034;-51
2024/03/25 05:42:38;;;;;;;4.20;0.63;;;4.60;99.90;;;;;;4993513;28;20025;-57
2024/03/25 05:45:04;;;;;;;3.10;1.02;;;4.60;99.90;;;;;;4996836;28;20504;-49
2024/03/25 05:47:30;;;;;;;4.15;1.10;;;4.60;99.90;;;;;;4984307;28;20128;-53
2024/03/25 05:49:55;;;;;;;2.13;1.08;;;4.60;99.90;;;;;;5003200;28;20104;-53
2024/03/25 05:52:21;;;;;;;2.22;0.80;;;4.60;99.90;;;;;;4984157;28;20022;-52
2024/03/25 05:54:47;;;;;;;3.03;0.75;;;4.60;99.90;;;;;;4981104;28;20123;-57
2024/03/25 05:57:13;;;;;;;2.55;0.68;;;4.60;99.90;;;;;;5005443;28;20071;-53
2024/03/25 05:59:38;;;;;;;2.47;1.15;;;4.60;99.90;;;;;;5005490;28;20099;-53
2024/03/25 06:02:06;;;;;;;2.50;0.70;;;4.60;99.90;;;;;;5009911;28;20037;-59
2024/03/25 06:04:32;;;;;;;3.03;1.20;;;4.70;99.90;;;;;;4969779;28;20040;-51
2024/03/25 06:06:57;;;;;;;2.05;0.80;;;4.70;99.90;;;;;;4956472;28;20042;-51
2024/03/25 06:09:23;;;;;;;1.15;0.82;;;4.70;99.90;;;;;;4950881;28;20585;-49
2024/03/25 06:11:49;;;;;;;2.10;0.80;;;4.70;99.90;;;;;;4948963;28;20073;-51
2024/03/25 06:14:16;;;;;;;2.13;1.20;;;4.70;99.90;;;;;;4958420;28;20037;-58
2024/03/25 06:16:43;;;;;;;0.70;0.70;;;4.80;99.90;;;;;;5006477;28;20063;-51
2024/03/25 06:19:10;;;;;;;2.80;1.02;;;4.80;99.90;;;;;;4956708;28;20038;-48
2024/03/25 06:21:36;;;;;;;1.20;0.80;;;4.80;99.90;;;;;;4943162;28;20037;-49
2024/03/25 06:24:02;;;;;;;1.83;0.93;;;4.80;99.90;;;;;;4942122;28;20088;-50
2024/03/25 06:26:28;;;;;;;1.00;0.68;;;4.80;99.90;;;;;;4939918;28;21181;-53
2024/03/25 06:28:54;;;;;;;2.72;1.15;;;4.90;99.90;;;;;;5011979;28;20051;-52
2024/03/25 06:34:21;;;;;;;3.38;1.40;;;4.90;99.90;;;;;;4991375;28;20036;-50
2024/03/25 06:36:50;;;;;;;1.77;1.40;;;4.90;99.90;;;;;;4997893;28;20037;-54
2024/03/25 06:39:15;;;;;;;2.75;1.23;;;4.90;99.90;;;;;;4965759;28;20045;-52
2024/03/25 06:41:41;;;;;;;2.85;1.63;;;5.00;99.90;;;;;;5004776;28;20544;-54
2024/03/25 06:44:07;;;;;;;2.75;1.35;;;5.10;99.90;;;;;;4988919;28;20045;-59
2024/03/25 06:46:34;;;;;;;1.35;1.25;;;5.20;99.90;;;;;;5005427;28;20517;-59
2024/03/25 06:49:00;;;;;;;1.88;1.35;;;5.20;99.90;;;;;;5003351;28;20030;-51
2024/03/25 06:51:26;;;;;;;2.25;1.45;;;5.20;99.90;;;;;;4939071;28;20040;-52
2024/03/25 06:53:52;;;;;;;8.60;5.00;;;5.20;99.90;;;;;;4983064;28;20678;-50
2024/03/25 06:56:17;;;;;;;8.60;4.70;;;5.20;99.90;;;;;;4969729;28;20037;-51
2024/03/25 06:58:43;;;;;;;2.33;1.70;;;5.20;99.90;;;;;;4985410;28;20026;-49
2024/03/25 07:01:12;;;;;;;4.35;1.65;;;5.20;99.90;;;;;;4976119;28;20063;-52
2024/03/25 07:03:38;;;;;;;3.00;1.80;;;5.20;99.90;;;;;;4989259;28;20133;-51
2024/03/25 07:06:05;;;;;;;1.55;1.35;;;5.10;99.90;;;;;;4988760;28;20544;-59
2024/03/25 07:08:31;;;;;;;7.50;1.75;;;5.20;99.90;;;;;;4995243;28;20508;-49
2024/03/25 07:10:57;;;;;;;3.17;1.50;;;5.10;99.90;;;;;;4988012;28;20041;-50
2024/03/25 07:13:23;;;;;;;3.45;1.83;;;5.10;99.90;;;;;;4971390;28;20041;-52
2024/03/25 07:15:49;;;;;;;7.25;1.98;;;5.20;99.90;;;;;;4983530;28;21074;-49
2024/03/25 07:18:15;;;;;;;1.95;1.40;;;5.20;99.90;;;;;;4963631;28;20024;-51
2024/03/25 07:20:42;;;;;;;4.88;1.85;;;5.30;99.90;;;;;;4955995;28;20034;-52
2024/03/25 07:23:09;;;;;;;4.50;1.60;;;5.30;99.90;;;;;;4970876;28;20033;-59
2024/03/25 07:25:36;;;;;;;2.90;1.63;;;5.30;99.90;;;;;;4979484;28;20091;-59
2024/03/25 07:28:08;;;;;;;3.78;1.77;;;5.40;99.90;;;;;;4996213;28;20044;-53
2024/03/25 07:30:34;;;;;;;4.75;1.88;;;5.40;99.90;;;;;;4959294;28;20148;-52
2024/03/25 07:32:59;;;;;;;3.35;2.28;;;5.40;99.90;;;;;;4977949;28;20687;-51
2024/03/25 07:35:25;;;;;;;4.15;2.08;;;5.50;99.90;;;;;;4972110;28;20128;-54
2024/03/25 07:37:52;;;;;;;4.55;1.95;;;5.50;99.90;;;;;;4983692;28;20025;-54
2024/03/25 07:40:18;;;;;;;7.03;1.95;;;5.60;99.90;;;;;;4976071;28;20103;-55
2024/03/25 07:42:43;;;;;;;3.22;1.48;;;5.60;99.90;;;;;;4946146;28;20116;-51
2024/03/25 07:45:09;;;;;;;4.53;1.48;;;5.70;99.90;;;;;;4963161;28;20072;-54
2024/03/25 07:47:35;;;;;;;3.63;1.25;;;5.70;99.90;;;;;;4985601;28;20021;-55
2024/03/25 07:50:00;;;;;;;3.63;1.15;;;5.80;99.90;;;;;;4973281;28;20033;-53
2024/03/25 07:52:27;;;;;;;5.28;1.98;;;5.90;99.90;;;;;;4977943;28;20726;-55
2024/03/25 07:54:54;;;;;;;2.45;1.27;;;6.00;99.90;;;;;;4978795;28;20117;-54
2024/03/25 07:57:21;;;;;;;4.30;1.58;;;6.00;99.90;;;;;;4969000;28;20124;-53
2024/03/25 07:59:47;;;;;;;3.60;1.52;;;6.10;99.90;;;;;;4997063;28;20052;-53
2024/03/25 08:02:12;;;;;;;3.40;1.33;;;6.20;99.90;;;;;;4969192;28;20537;-53
2024/03/25 08:04:38;;;;;;;6.80;1.17;;;6.30;99.90;;;;;;4975494;28;20793;-56
2024/03/25 08:07:04;;;;;;;2.00;1.38;;;6.30;99.90;;;;;;5002775;28;20030;-55
2024/03/25 08:09:29;;;;;;;7.28;1.70;;;6.30;99.90;;;;;;4968800;28;20076;-52
2024/03/25 08:11:55;;;;;;;3.45;1.20;;;6.20;99.90;;;;;;4982746;28;20416;-55
2024/03/25 08:14:21;;;;;;;6.85;1.85;;;6.30;99.90;;;;;;4930583;28;20026;-54
2024/03/25 08:16:47;;;;;;;1.50;1.13;;;6.20;99.90;;;;;;4967226;28;20557;-52
2024/03/25 08:19:12;;;;;;;3.72;1.73;;;6.20;99.90;;;;;;4998717;28;20102;-54
2024/03/25 08:21:38;;;;;;;5.90;1.73;;;6.20;99.90;;;;;;4969780;28;20120;-56
2024/03/25 08:24:04;;;;;;;5.53;1.85;;;6.20;99.90;;;;;;4993757;28;20029;-57
2024/03/25 08:26:30;;;;;;;6.15;1.73;;;6.20;99.90;;;;;;4987070;28;20485;-51
2024/03/25 08:28:59;;;;;;;4.78;1.92;;;6.20;99.90;;;;;;4967032;28;21159;-49
2024/03/25 08:31:24;;;;;;;2.78;1.67;;;6.30;99.90;;;;;;5003172;28;20569;-51
2024/03/25 08:33:50;;;;;;;13.15;2.45;;;6.30;99.90;;;;;;4971642;28;20018;-49
2024/03/25 08:36:16;;;;;;;8.32;2.03;;;6.40;99.90;;;;;;4973455;28;20455;-56
2024/03/25 08:38:41;;;;;;;7.40;2.42;;;6.50;99.90;;;;;;4995238;28;20620;-52
2024/03/25 08:41:07;;;;;;;2.00;1.48;;;6.60;99.90;;;;;;4965598;28;20025;-54
2024/03/25 08:43:38;;;;;;;4.00;1.27;;;6.70;99.90;;;;;;4994591;28;20042;-59
2024/03/25 08:46:04;;;;;;;10.88;2.45;;;6.80;99.90;;;;;;4995665;28;20033;-52
2024/03/25 08:48:30;;;;;;;7.00;1.88;;;7.10;99.90;;;;;;4967313;28;20424;-54
2024/03/25 08:50:56;;;;;;;10.13;2.67;;;7.30;99.90;;;;;;4986377;28;20046;-54
2024/03/25 08:53:22;;;;;;;5.28;1.58;;;7.60;99.90;;;;;;4963878;28;20605;-53
2024/03/25 08:55:48;;;;;;;4.72;1.95;;;7.80;99.90;;;;;;4961589;28;20124;-52
2024/03/25 08:58:14;;;;;;;11.32;2.45;;;7.90;99.90;;;;;;4994829;28;20029;-54
2024/03/25 09:00:40;;;;;;;9.05;1.75;;;7.80;99.90;;;;;;4961235;28;20037;-53
2024/03/25 09:03:06;;;;;;;4.20;1.88;;;7.70;99.90;;;;;;4972360;28;20034;-59
2024/03/25 09:05:32;;;;;;;3.03;0.80;;;7.50;99.90;;;;;;4983075;28;20026;-50
2024/03/25 09:07:58;;;;;;;6.43;1.58;;;7.30;99.90;;;;;;4958763;28;20391;-49
2024/03/25 09:13:08;;;;;;;3.20;1.40;;;6.80;99.90;;;;;;4992595;28;20150;-54
2024/03/25 09:15:34;;;;;;;5.40;1.10;;;6.70;99.90;;;;;;4961691;28;20033;-53
2024/03/25 09:18:00;;;;;;;1.60;0.95;;;6.50;99.90;;;;;;4988944;28;20501;-52
2024/03/25 09:20:26;;;;;;;3.90;1.27;;;6.50;99.90;;;;;;4957994;28;20482;-55
2024/03/25 09:22:52;;;;;;;5.78;1.25;;;6.70;99.90;;;;;;4957710;28;20040;-53
2024/03/25 09:25:18;;;;;;;4.55;1.88;;;6.80;99.90;;;;;;4991903;28;20038;-51
2024/03/25 09:27:48;;;;;;;2.80;1.60;;;6.80;99.90;;;;;;4956158;28;20030;-51
2024/03/25 09:30:14;;;;;;;5.82;1.60;;;6.90;99.90;;;;;;4953470;28;20520;-51
2024/03/25 09:32:41;;;;;;;3.83;1.48;;;7.00;99.90;;;;;;4986605;28;20034;-52
2024/03/25 09:35:06;;;;;;;4.40;1.30;;;7.10;99.90;;;;;;4952420;28;20269;-50
2024/03/25 09:37:32;;;;;;;5.35;1.67;;;7.20;99.90;;;;;;4990527;28;20026;-57
2024/03/25 09:39:59;;;;;;;3.40;1.55;;;7.30;99.90;;;;;;4962947;28;20040;-54
2024/03/25 09:42:33;;;;;;;6.13;2.42;;;7.50;99.90;;;;;;4949135;28;21677;-53
2024/03/25 09:44:59;;;;;;;5.97;1.95;;;7.60;99.90;;;;;;4980764;28;20034;-53
2024/03/25 09:47:25;;;;;;;7.70;1.63;;;7.70;99.90;;;;;;4952595;28;20394;-50
2024/03/25 09:49:54;;;;;;;5.00;1.77;;;7.70;99.90;;;;;;4950010;28;20389;-50
2024/03/25 09:52:19;;;;;;;4.60;1.95;;;7.80;99.90;;;;;;4988284;28;20033;-49
2024/03/25 09:54:47;;;;;;;5.40;1.30;;;7.70;99.90;;;;;;4952051;28;20041;-49
2024/03/25 09:57:14;;;;;;;4.15;1.48;;;7.90;99.90;;;;;;4948017;28;20538;-50
2024/03/25 09:59:39;;;;;;;6.53;1.77;;;8.10;99.90;;;;;;4988058;28;20063;-51
2024/03/25 10:02:06;;;;;;;2.92;1.65;;;8.30;99.90;;;;;;4945712;28;20034;-54
2024/03/25 10:04:32;;;;;;;3.85;1.83;;;8.50;99.90;;;;;;4985966;28;20080;-55
2024/03/25 10:06:58;;;;;;;4.57;1.80;;;8.60;99.90;;;;;;4952902;28;20033;-49
2024/03/25 10:09:25;;;;;;;6.30;1.67;;;8.60;99.90;;;;;;4946253;28;21616;-53
2024/03/25 10:11:51;;;;;;;4.47;1.60;;;8.40;99.90;;;;;;4984708;28;20394;-53
2024/03/25 10:14:16;;;;;;;4.70;1.80;;;8.30;99.90;;;;;;4948195;28;20037;-54
2024/03/25 10:16:43;;;;;;;7.47;1.42;;;8.20;99.90;;;;;;4945123;28;20135;-54
2024/03/25 10:19:09;;;;;;;5.03;1.63;;;8.10;99.90;;;;;;4983723;28;20060;-53
2024/03/25 10:21:35;;;;;;;8.45;2.10;;;8.10;99.90;;;;;;4942667;28;20626;-53
2024/03/25 10:24:00;;;;;;;8.00;1.67;;;8.20;99.90;;;;;;4976655;28;20082;-56
2024/03/25 10:26:32;;;;;;;7.15;2.47;;;8.20;99.90;;;;;;4941943;28;20113;-54
2024/03/25 10:29:07;;;;;;;3.35;1.35;;;8.40;99.90;;;;;;4939619;28;21289;-54
2024/03/25 10:31:36;;;;;;;6.72;1.15;;;8.60;99.90;;;;;;4976773;28;20017;-59
2024/03/25 10:34:01;;;;;;;8.30;2.40;;;8.80;99.90;;;;;;4965906;28;20037;-52
2024/03/25 10:36:28;;;;;;;6.35;2.15;;;8.90;99.90;;;;;;4935088;28;20535;-53
2024/03/25 10:39:02;;;;;;;8.52;2.28;;;8.80;99.90;;;;;;4977723;28;20076;-51
2024/03/25 10:41:32;;;;;;;3.75;1.67;;;8.70;99.90;;;;;;4937767;28;20061;-54
2024/03/25 10:44:03;;;;;;;4.15;1.50;;;8.40;99.90;;;;;;4935760;28;22344;-51
2024/03/25 10:46:28;;;;;;;5.88;1.73;;;8.30;99.90;;;;;;4980192;28;20030;-52
2024/03/25 10:49:14;;;;;;;5.10;1.50;;;8.20;99.90;;;;;;4938564;28;20036;-53
2024/03/25 10:51:40;;;;;;;4.35;0.98;;;8.10;99.90;;;;;;4948777;28;20044;-52
2024/03/25 10:54:07;;;;;;;3.92;1.13;;;8.20;99.90;;;;;;4958435;28;20025;-59
2024/03/25 10:56:33;;;;;;;3.60;1.30;;;8.20;99.90;;;;;;4958353;28;20025;-54
2024/03/25 10:58:59;;;;;;;5.00;1.30;;;8.30;99.90;;;;;;4935288;28;21729;-54
2024/03/25 11:01:25;;;;;;;7.32;1.95;;;8.50;99.90;;;;;;4978028;28;20033;-50
2024/03/25 11:03:51;;;;;;;5.72;1.00;;;8.70;99.90;;;;;;4934360;28;20045;-52
2024/03/25 11:06:17;;;;;;;4.93;1.40;;;8.80;99.90;;;;;;4931101;28;20038;-49
2024/03/25 11:08:46;;;;;;;4.20;1.30;;;8.90;99.90;;;;;;4975876;28;20030;-53
2024/03/25 11:11:13;;;;;;;2.92;1.08;;;8.90;99.90;;;;;;4932030;28;20029;-53
2024/03/25 11:13:39;;;;;;;3.95;1.25;;;9.00;99.90;;;;;;4945234;28;20071;-58
2024/03/25 11:16:07;;;;;;;6.22;1.77;;;9.20;99.90;;;;;;4966942;28;20064;-52
2024/03/25 11:18:33;;;;;;;3.25;1.00;;;9.50;99.90;;;;;;4933345;28;21184;-52
2024/03/25 11:21:07;;;;;;;3.88;1.10;;;9.70;99.90;;;;;;4975893;28;20056;-52
2024/03/25 11:23:41;;;;;;;3.72;1.05;;;9.70;99.90;;;;;;4958931;28;20044;-56
2024/03/25 11:26:39;;;;;;;4.68;1.33;;;9.50;99.90;;;;;;4931661;28;20041;-52
2024/03/25 11:29:05;;;;;;;6.43;1.35;;;9.10;99.90;;;;;;4929069;28;20037;-49
2024/03/25 11:31:33;;;;;;;1.95;1.17;;;8.90;99.90;;;;;;4983531;28;20048;-51
2024/03/25 11:34:04;;;;;;;4.25;1.63;;;8.90;99.90;;;;;;4927433;28;20025;-52
2024/03/25 11:36:30;;;;;;;3.05;0.90;;;8.90;99.90;;;;;;4931092;28;21532;-48
2024/03/25 11:39:05;;;;;;;6.10;1.20;;;8.90;99.90;;;;;;4980904;28;20044;-48
2024/03/25 11:41:32;;;;;;;1.85;1.05;;;9.00;99.90;;;;;;4945087;28;20034;-54
2024/03/25 11:43:58;;;;;;;4.00;0.77;;;9.10;99.90;;;;;;4925420;28;22275;-49
2024/03/25 11:46:26;;;;;;;2.50;0.73;;;9.30;99.90;;;;;;4977850;28;20053;-50
2024/03/25 11:48:55;;;;;;;5.28;1.02;;;9.40;99.90;;;;;;4927307;28;20068;-48
2024/03/25 11:51:21;;;;;;;2.65;1.33;;;9.50;99.90;;;;;;4922829;28;20034;-50
2024/03/25 11:53:46;;;;;;;5.57;1.33;;;9.40;99.90;;;;;;4971987;28;20033;-49
2024/03/25 11:56:13;;;;;;;5.85;1.17;;;9.40;99.90;;;;;;4941434;28;20026;-52
2024/03/25 11:58:40;;;;;;;3.13;1.00;;;9.30;99.90;;;;;;4946293;28;20045;-59
2024/03/25 12:01:05;;;;;;;3.47;1.10;;;9.30;99.90;;;;;;4957164;28;20033;-48
2024/03/25 12:03:33;;;;;;;1.55;0.75;;;9.40;99.90;;;;;;4922265;28;20052;-50
2024/03/25 12:05:59;;;;;;;2.08;0.70;;;9.50;99.90;;;;;;4999388;28;20038;-52
2024/03/25 12:08:26;;;;;;;5.25;0.90;;;9.80;99.90;;;;;;4916795;28;20044;-54
2024/03/25 12:13:40;;;;;;;3.33;1.25;;;10.00;99.90;;;;;;4955781;28;20476;-58
2024/03/25 12:16:07;;;;;;;3.15;0.90;;;10.00;99.90;;;;;;4954740;28;20024;-51
2024/03/25 12:18:34;;;;;;;4.43;1.10;;;10.00;99.90;;;;;;4915589;28;20178;-53
2024/03/25 12:21:01;;;;;;;2.95;0.88;;;9.90;99.90;;;;;;4969280;28;20040;-51
2024/03/25 12:23:33;;;;;;;3.78;1.00;;;9.80;99.90;;;;;;4926535;28;20149;-52
2024/03/25 12:26:00;;;;;;;4.05;1.15;;;9.80;99.90;;;;;;4915729;28;20678;-51
2024/03/25 12:28:26;;;;;;;4.47;1.27;;;9.80;99.90;;;;;;4970799;28;20062;-51
2024/03/25 12:30:55;;;;;;;4.13;1.02;;;9.80;99.90;;;;;;4909370;28;20033;-50
2024/03/25 12:33:20;;;;;;;1.45;0.88;;;9.90;99.90;;;;;;4914758;28;20038;-51
2024/03/25 12:35:50;;;;;;;1.52;0.93;;;10.00;99.90;;;;;;4969820;28;20025;-53
2024/03/25 12:38:34;;;;;;;6.05;1.17;;;10.00;99.90;;;;;;4925541;28;20056;-52
2024/03/25 12:41:10;;;;;;;7.47;1.77;;;10.10;99.90;;;;;;4911890;28;21604;-53
2024/03/25 12:43:46;;;;;;;5.65;1.20;;;10.20;99.90;;;;;;4948839;28;20053;-59
2024/03/25 12:46:12;;;;;;;2.22;1.10;;;10.20;99.90;;;;;;4967980;28;20030;-52
2024/03/25 12:48:38;;;;;;;5.60;1.33;;;10.30;99.90;;;;;;4907235;28;20039;-51
2024/03/25 12:51:04;;;;;;;9.68;1.50;;;10.30;99.90;;;;;;4962060;28;20033;-58
2024/03/25 12:53:30;;;;;;;6.57;1.55;;;10.30;99.90;;;;;;4917464;28;20618;-54
2024/03/25 12:55:56;;;;;;;5.38;1.70;;;10.30;99.90;;;;;;4906486;28;20037;-53
2024/03/25 12:58:21;;;;;;;5.53;1.85;;;10.20;99.90;;;;;;4969053;28;20044;-49
2024/03/25 13:00:47;;;;;;;7.30;1.67;;;10.10;99.90;;;;;;4905752;28;20029;-52